Time;durP1;ratioP1;P1;durP2;ratioP2;P2;SDS_P1;SDS_P2;PMS_P1;PMS_P2;Temp;Humidity;BMP_temperature;BMP_pressure;BME280_temperature;BME280_humidity;BME280_pressure;Samples;Min_cycle;Max_cycle;Signal;HPM_P1;HPM_P2
2022/10/03 00:02:08;;;;;;;9.90;3.30;;;8.80;99.90;;;;;;6245067;23;20189;-40
2022/10/03 00:05:00;;;;;;;5.77;2.80;;;8.80;99.90;;;;;;6246988;22;20152;-41
2022/10/03 00:07:49;;;;;;;9.33;2.57;;;8.70;99.90;;;;;;6246922;22;20176;-37
2022/10/03 00:10:23;;;;;;;11.90;3.10;;;8.70;99.90;;;;;;6245106;23;20189;-40
2022/10/03 00:13:11;;;;;;;6.97;3.20;;;8.70;99.90;;;;;;6246729;22;20501;-40
2022/10/03 00:15:46;;;;;;;11.57;3.17;;;8.70;99.90;;;;;;6245997;22;20452;-39
2022/10/03 00:18:38;;;;;;;10.37;3.10;;;8.60;99.90;;;;;;6246539;22;20176;-40
2022/10/03 00:21:28;;;;;;;9.00;3.20;;;8.60;99.90;;;;;;6246608;22;20138;-39
2022/10/03 00:24:20;;;;;;;6.03;2.60;;;8.60;99.90;;;;;;6246917;22;20152;-41
2022/10/03 00:26:52;;;;;;;13.10;3.10;;;8.60;99.90;;;;;;6211004;22;20176;-40
2022/10/03 00:29:38;;;;;;;8.33;2.63;;;8.60;99.90;;;;;;6246471;22;20183;-40
2022/10/03 00:32:27;;;;;;;8.60;3.27;;;8.60;99.90;;;;;;6246304;22;20243;-42
2022/10/03 00:35:28;;;;;;;5.40;2.67;;;8.70;99.90;;;;;;6246693;22;20140;-41
2022/10/03 00:38:10;;;;;;;10.27;3.47;;;8.60;99.90;;;;;;6153605;23;20255;-40
2022/10/03 00:41:00;;;;;;;9.40;2.70;;;8.60;99.90;;;;;;6238656;22;20160;-42
2022/10/03 00:43:36;;;;;;;9.57;3.00;;;8.70;99.90;;;;;;6246458;22;20217;-39
2022/10/03 00:46:43;;;;;;;11.90;3.20;;;8.60;99.90;;;;;;6246589;22;20534;-42
2022/10/03 00:49:46;;;;;;;9.47;3.23;;;8.60;99.90;;;;;;6245748;23;20146;-40
2022/10/03 00:52:20;;;;;;;9.37;2.70;;;8.60;99.90;;;;;;6246381;23;20179;-40
2022/10/03 00:55:20;;;;;;;11.50;2.73;;;8.60;99.90;;;;;;6246638;22;20160;-40
2022/10/03 00:58:03;;;;;;;7.43;2.60;;;8.60;99.90;;;;;;6246469;22;20172;-40
2022/10/03 01:00:31;;;;;;;11.17;2.67;;;8.60;99.90;;;;;;6246597;22;20149;-42
2022/10/03 01:02:57;;;;;;;8.63;3.20;;;8.60;99.90;;;;;;6246266;22;20563;-41
2022/10/03 01:05:28;;;;;;;9.13;2.77;;;8.60;99.90;;;;;;6246402;22;20187;-42
2022/10/03 01:07:53;;;;;;;12.00;3.13;;;8.60;99.90;;;;;;6246155;22;20175;-40
2022/10/03 01:10:30;;;;;;;9.97;3.43;;;8.60;99.90;;;;;;6246387;22;20188;-41
2022/10/03 01:13:01;;;;;;;12.13;3.13;;;8.60;99.90;;;;;;6246548;22;20171;-42
2022/10/03 01:15:50;;;;;;;10.43;3.03;;;8.50;99.90;;;;;;6246530;22;20156;-40
2022/10/03 01:18:22;;;;;;;7.13;3.10;;;8.50;99.90;;;;;;6188420;23;20617;-42
2022/10/03 01:21:02;;;;;;;9.63;3.23;;;8.50;99.90;;;;;;6245982;22;20156;-39
2022/10/03 01:23:37;;;;;;;10.70;3.13;;;8.50;99.90;;;;;;6246307;22;20148;-38
2022/10/03 01:26:43;;;;;;;11.53;3.13;;;8.60;99.90;;;;;;6245720;22;20155;-39
2022/10/03 01:32:13;;;;;;;6.23;2.30;;;8.50;99.90;;;;;;6246244;23;20633;-42
2022/10/03 01:34:57;;;;;;;7.30;2.70;;;8.50;99.90;;;;;;6246428;22;20576;-41
2022/10/03 01:37:32;;;;;;;9.87;2.60;;;8.40;99.90;;;;;;6245886;23;20250;-39
2022/10/03 01:40:15;;;;;;;10.03;3.03;;;8.40;99.90;;;;;;6245827;22;20229;-40
2022/10/03 01:43:02;;;;;;;8.50;3.73;;;8.40;99.90;;;;;;6246275;22;20155;-39
2022/10/03 01:45:46;;;;;;;5.43;2.60;;;8.40;99.90;;;;;;6246305;22;20193;-41
2022/10/03 01:48:41;;;;;;;6.90;2.60;;;8.40;99.90;;;;;;6246040;22;20180;-38
2022/10/03 01:51:17;;;;;;;9.43;3.30;;;8.40;99.90;;;;;;6245217;23;20159;-40
2022/10/03 01:54:17;;;;;;;8.97;2.80;;;8.30;99.90;;;;;;6244431;23;20159;-42
2022/10/03 01:56:57;;;;;;;7.47;3.13;;;8.30;99.90;;;;;;6246018;22;20206;-39
2022/10/03 01:59:45;;;;;;;10.43;3.00;;;8.30;99.90;;;;;;6246445;22;20140;-41
2022/10/03 02:02:38;;;;;;;8.53;2.60;;;8.20;99.90;;;;;;6246225;22;20171;-40
2022/10/03 02:05:14;;;;;;;6.57;2.97;;;8.20;99.90;;;;;;6245634;23;20140;-39
2022/10/03 02:07:43;;;;;;;14.50;3.17;;;8.10;99.90;;;;;;6245721;22;20257;-41
2022/10/03 02:10:32;;;;;;;7.67;2.77;;;8.10;99.90;;;;;;6244196;23;20628;-38
2022/10/03 02:13:03;;;;;;;7.53;2.83;;;8.00;99.90;;;;;;6246233;22;20234;-38
2022/10/03 02:15:55;;;;;;;10.13;3.23;;;8.00;99.90;;;;;;6246211;22;20143;-38
2022/10/03 02:18:35;;;;;;;7.27;2.90;;;8.00;99.90;;;;;;6246196;22;20140;-41
2022/10/03 02:21:14;;;;;;;7.93;3.03;;;7.90;99.90;;;;;;6246092;22;20136;-39
2022/10/03 02:23:44;;;;;;;9.40;3.50;;;7.90;99.90;;;;;;6245991;22;20167;-40
2022/10/03 02:26:48;;;;;;;9.10;4.10;;;7.80;99.90;;;;;;6245673;22;20241;-39
2022/10/03 02:29:43;;;;;;;10.20;4.13;;;7.90;99.90;;;;;;6245096;23;20500;-40
2022/10/03 02:32:15;;;;;;;6.20;3.30;;;7.80;99.90;;;;;;6245820;23;20601;-39
2022/10/03 02:35:10;;;;;;;10.27;3.90;;;7.80;99.90;;;;;;6246175;22;20519;-41
2022/10/03 02:38:24;;;;;;;12.93;4.07;;;7.80;99.90;;;;;;6245980;22;20171;-38
2022/10/03 02:41:26;;;;;;;11.70;4.40;;;7.70;99.90;;;;;;6154896;23;20142;-39
2022/10/03 02:44:29;;;;;;;11.47;4.13;;;7.70;99.90;;;;;;6247375;23;20199;-39
2022/10/03 02:47:08;;;;;;;12.37;4.57;;;7.60;99.90;;;;;;6247341;23;20258;-40
2022/10/03 02:50:21;;;;;;;11.17;4.80;;;7.60;99.90;;;;;;6247625;22;20136;-38
2022/10/03 02:53:16;;;;;;;12.77;5.47;;;7.60;99.90;;;;;;6247632;22;20171;-40
2022/10/03 02:56:19;;;;;;;11.93;5.17;;;7.60;99.90;;;;;;6247394;23;20151;-40
2022/10/03 02:59:06;;;;;;;11.90;5.20;;;7.60;99.90;;;;;;6250212;23;20147;-40
2022/10/03 03:01:45;;;;;;;12.67;5.23;;;7.60;99.90;;;;;;6250927;22;20155;-40
2022/10/03 03:05:10;;;;;;;9.43;5.53;;;7.50;99.90;;;;;;6250425;22;20135;-41
2022/10/03 03:08:01;;;;;;;10.03;5.57;;;7.50;99.90;;;;;;6196472;22;20175;-40
2022/10/03 03:11:06;;;;;;;14.40;5.73;;;7.50;99.90;;;;;;6247554;22;20476;-43
2022/10/03 03:13:59;;;;;;;11.17;5.37;;;7.50;99.90;;;;;;6247508;22;20181;-41
2022/10/03 03:16:54;;;;;;;11.87;5.63;;;7.50;99.90;;;;;;6247626;22;20179;-43
2022/10/03 03:19:44;;;;;;;14.43;5.27;;;7.50;99.90;;;;;;6247439;22;20140;-41
2022/10/03 03:22:19;;;;;;;14.60;5.97;;;7.50;99.90;;;;;;6247190;23;20479;-42
2022/10/03 03:24:50;;;;;;;9.33;5.10;;;7.40;99.90;;;;;;6247719;22;20139;-43
2022/10/03 03:27:32;;;;;;;12.83;6.27;;;7.50;99.90;;;;;;6247476;22;20175;-38
2022/10/03 03:30:15;;;;;;;8.60;5.60;;;7.50;99.90;;;;;;6247394;22;20514;-42
2022/10/03 03:33:30;;;;;;;12.60;6.20;;;7.50;99.90;;;;;;6246882;22;20174;-39
2022/10/03 03:36:19;;;;;;;15.87;6.03;;;7.50;99.90;;;;;;6207155;22;20182;-38
2022/10/03 03:39:22;;;;;;;15.33;6.43;;;7.50;99.90;;;;;;6247579;22;20144;-39
2022/10/03 03:42:07;;;;;;;10.77;5.77;;;7.60;99.90;;;;;;6247211;23;20159;-39
2022/10/03 03:44:44;;;;;;;15.43;6.33;;;7.50;99.90;;;;;;6246958;23;20171;-38
2022/10/03 03:47:34;;;;;;;13.30;6.30;;;7.50;99.90;;;;;;6247148;22;20182;-40
2022/10/03 03:50:20;;;;;;;11.53;5.43;;;7.50;99.90;;;;;;6247071;22;20198;-39
2022/10/03 03:53:13;;;;;;;13.73;5.63;;;7.50;99.90;;;;;;6245370;23;20183;-41
2022/10/03 03:56:07;;;;;;;12.53;6.27;;;7.60;99.90;;;;;;6247049;22;20170;-41
2022/10/03 03:58:32;;;;;;;9.37;5.63;;;7.60;99.90;;;;;;6247324;22;20136;-39
2022/10/03 04:01:25;;;;;;;11.87;5.93;;;7.60;99.90;;;;;;6245169;23;20216;-39
2022/10/03 04:04:12;;;;;;;12.47;5.07;;;7.70;99.90;;;;;;6246677;22;20151;-40
2022/10/03 04:07:12;;;;;;;16.63;5.13;;;7.70;99.90;;;;;;6246761;22;20198;-42
2022/10/03 04:09:42;;;;;;;9.07;5.50;;;7.70;99.90;;;;;;6246873;22;20152;-40
2022/10/03 04:12:16;;;;;;;9.87;5.47;;;7.70;99.90;;;;;;6246763;22;20183;-39
2022/10/03 04:15:01;;;;;;;9.70;4.87;;;7.70;99.90;;;;;;6246937;22;20148;-41
2022/10/03 04:20:18;;;;;;;10.33;5.23;;;7.60;99.90;;;;;;6246697;23;20600;-38
2022/10/03 04:23:21;;;;;;;11.47;4.97;;;7.60;99.90;;;;;;6246959;22;20147;-40
2022/10/03 04:26:14;;;;;;;8.73;4.77;;;7.60;99.90;;;;;;6246925;22;20143;-39
2022/10/03 04:29:09;;;;;;;12.37;5.70;;;7.60;99.90;;;;;;6247481;22;20139;-40
2022/10/03 04:31:58;;;;;;;11.17;5.60;;;7.60;99.90;;;;;;6246525;22;20189;-41
2022/10/03 04:34:30;;;;;;;8.27;4.87;;;7.60;99.90;;;;;;6246422;22;20138;-40
2022/10/03 04:37:02;;;;;;;13.30;5.30;;;7.60;99.90;;;;;;6246680;22;20246;-39
2022/10/03 04:39:43;;;;;;;13.60;5.37;;;7.60;99.90;;;;;;6247063;22;20136;-40
2022/10/03 04:42:20;;;;;;;12.93;5.13;;;7.60;99.90;;;;;;6247406;22;20154;-40
2022/10/03 04:45:00;;;;;;;14.07;5.60;;;7.60;99.90;;;;;;6221128;23;20244;-42
2022/10/03 04:47:41;;;;;;;17.93;6.03;;;7.60;99.90;;;;;;6246469;22;20171;-39
2022/10/03 04:50:10;;;;;;;13.37;5.10;;;7.70;99.90;;;;;;6246745;22;20148;-41
2022/10/03 04:52:55;;;;;;;11.70;5.50;;;7.70;99.90;;;;;;6246636;22;20262;-40
2022/10/03 04:55:38;;;;;;;15.60;6.00;;;7.80;99.90;;;;;;6244816;23;20318;-39
2022/10/03 04:58:24;;;;;;;9.53;4.93;;;7.80;99.90;;;;;;6246525;22;20174;-42
2022/10/03 05:01:19;;;;;;;13.93;5.87;;;7.80;99.90;;;;;;6246488;22;20140;-41
2022/10/03 05:04:18;;;;;;;12.57;5.90;;;7.80;99.90;;;;;;6250510;22;20140;-44
2022/10/03 05:07:24;;;;;;;13.07;5.73;;;7.80;99.90;;;;;;6251044;22;20178;-44
2022/10/03 05:09:58;;;;;;;13.47;5.87;;;7.80;99.90;;;;;;6205440;22;20510;-45
2022/10/03 05:12:38;;;;;;;12.27;5.53;;;7.90;99.90;;;;;;6252053;22;20494;-45
2022/10/03 05:15:33;;;;;;;12.93;5.63;;;7.90;99.90;;;;;;6250837;23;20163;-45
2022/10/03 05:18:25;;;;;;;11.47;5.77;;;7.90;99.90;;;;;;6251294;23;20190;-44
2022/10/03 05:21:08;;;;;;;8.73;4.93;;;7.90;99.90;;;;;;6251945;22;20220;-45
2022/10/03 05:24:03;;;;;;;13.27;5.10;;;7.90;99.90;;;;;;6250679;22;20174;-44
2022/10/03 05:26:40;;;;;;;11.57;5.60;;;7.80;99.90;;;;;;6252153;22;20171;-45
2022/10/03 05:29:24;;;;;;;12.17;5.10;;;7.80;99.90;;;;;;6251410;22;20151;-44
2022/10/03 05:32:10;;;;;;;11.03;5.13;;;7.80;99.90;;;;;;6252347;22;20175;-45
2022/10/03 05:34:54;;;;;;;11.67;5.80;;;7.70;99.90;;;;;;6251504;22;20166;-43
2022/10/03 05:37:46;;;;;;;11.50;6.00;;;7.70;99.90;;;;;;6251904;22;20261;-44
2022/10/03 05:40:28;;;;;;;10.80;5.27;;;7.70;99.90;;;;;;6248072;23;20144;-40
2022/10/03 05:43:05;;;;;;;11.87;6.03;;;7.60;99.90;;;;;;6246208;22;20147;-38
2022/10/03 05:45:40;;;;;;;11.13;5.77;;;7.60;99.90;;;;;;6246738;22;20666;-41
2022/10/03 05:48:32;;;;;;;14.53;6.77;;;7.70;99.90;;;;;;6245873;22;20171;-40
2022/10/03 05:51:20;;;;;;;15.70;6.67;;;7.70;99.90;;;;;;6246369;22;20171;-39
2022/10/03 05:54:04;;;;;;;14.27;6.23;;;7.70;99.90;;;;;;6188905;23;20175;-41
2022/10/03 05:57:00;;;;;;;17.67;6.87;;;7.70;99.90;;;;;;6246267;23;20204;-40
2022/10/03 05:59:46;;;;;;;12.70;6.20;;;7.80;99.90;;;;;;6246460;22;20149;-42
2022/10/03 06:02:31;;;;;;;16.20;6.33;;;7.80;99.90;;;;;;6244382;23;20156;-38
2022/10/03 06:05:22;;;;;;;18.57;6.80;;;7.80;99.90;;;;;;6246365;22;20143;-40
2022/10/03 06:08:35;;;;;;;12.20;6.47;;;7.80;99.90;;;;;;6219036;23;20179;-42
2022/10/03 06:11:41;;;;;;;14.60;6.63;;;7.90;99.90;;;;;;6244466;23;20233;-41
2022/10/03 06:14:33;;;;;;;18.33;7.20;;;7.90;99.90;;;;;;6248205;22;20217;-39
2022/10/03 06:17:05;;;;;;;17.67;6.80;;;8.00;99.90;;;;;;6248000;22;20221;-40
2022/10/03 06:19:45;;;;;;;19.30;7.33;;;8.00;99.90;;;;;;6248011;22;20616;-39
2022/10/03 06:22:48;;;;;;;16.87;6.83;;;8.10;99.90;;;;;;6246206;23;20233;-41
2022/10/03 06:25:39;;;;;;;18.93;7.13;;;8.10;99.90;;;;;;6247680;23;20143;-39
2022/10/03 06:28:31;;;;;;;12.30;7.10;;;8.20;99.90;;;;;;6248014;22;20251;-40
2022/10/03 06:31:38;;;;;;;18.90;6.83;;;8.20;99.90;;;;;;6248319;22;20140;-39
2022/10/03 06:34:25;;;;;;;15.53;7.57;;;8.30;99.90;;;;;;6247677;22;20159;-40
2022/10/03 06:36:56;;;;;;;14.63;7.67;;;8.30;99.90;;;;;;6247697;22;20167;-42
2022/10/03 06:40:00;;;;;;;19.10;7.63;;;8.30;99.90;;;;;;6247878;22;20160;-40
2022/10/03 06:42:53;;;;;;;30.47;8.33;;;8.40;99.90;;;;;;6155480;23;20175;-39
2022/10/03 06:45:31;;;;;;;16.67;7.83;;;8.40;99.90;;;;;;6154727;23;20173;-40
2022/10/03 06:48:09;;;;;;;24.13;8.53;;;8.40;99.90;;;;;;6213867;23;20205;-38
2022/10/03 06:50:53;;;;;;;18.43;9.37;;;8.40;99.90;;;;;;6247920;22;20147;-40
2022/10/03 06:53:37;;;;;;;23.00;9.30;;;8.60;99.90;;;;;;6247763;22;20179;-40
2022/10/03 06:56:39;;;;;;;21.03;9.87;;;8.70;99.90;;;;;;6247705;22;20485;-40
2022/10/03 06:59:26;;;;;;;29.63;11.23;;;8.70;99.90;;;;;;6247752;23;20152;-40
2022/10/03 07:02:17;;;;;;;31.53;13.27;;;8.90;99.90;;;;;;6245842;23;20155;-41
2022/10/03 07:05:14;;;;;;;25.70;11.70;;;9.00;99.90;;;;;;6247388;22;20140;-39
2022/10/03 07:07:48;;;;;;;20.57;10.27;;;9.10;99.90;;;;;;6247345;22;20182;-38
2022/10/03 07:10:34;;;;;;;25.27;10.70;;;9.30;99.90;;;;;;6247651;22;20152;-40
2022/10/03 07:13:11;;;;;;;27.53;11.50;;;9.40;99.90;;;;;;6247662;22;20610;-42
2022/10/03 07:16:09;;;;;;;26.73;10.37;;;9.50;99.90;;;;;;6245725;23;20162;-41
2022/10/03 07:19:13;;;;;;;27.83;11.10;;;9.50;99.90;;;;;;6234732;23;20155;-40
2022/10/03 07:22:26;;;;;;;23.50;10.20;;;9.60;99.90;;;;;;6247516;22;20218;-40
2022/10/03 07:25:38;;;;;;;28.63;10.80;;;9.60;99.90;;;;;;6247010;22;20144;-40
2022/10/03 07:28:19;;;;;;;25.40;11.17;;;9.60;99.90;;;;;;6247143;22;20250;-43
2022/10/03 07:30:58;;;;;;;22.90;10.67;;;9.60;99.90;;;;;;6247560;22;20140;-41
2022/10/03 07:33:40;;;;;;;31.73;12.90;;;9.70;99.90;;;;;;6245500;23;20180;-40
2022/10/03 07:39:28;;;;;;;27.90;11.07;;;10.00;99.90;;;;;;6247297;23;20151;-40
2022/10/03 07:42:06;;;;;;;35.37;11.73;;;10.20;99.90;;;;;;6232629;23;20160;-43
2022/10/03 07:45:22;;;;;;;21.60;10.03;;;10.40;99.90;;;;;;6247158;22;20172;-41
2022/10/03 07:48:06;;;;;;;31.17;11.13;;;10.50;99.90;;;;;;6207910;22;20207;-41
2022/10/03 07:51:04;;;;;;;36.53;12.57;;;10.60;99.90;;;;;;6248147;22;20189;-41
2022/10/03 07:54:07;;;;;;;36.27;14.00;;;10.70;99.90;;;;;;6247325;22;20207;-38
2022/10/03 07:56:38;;;;;;;29.37;11.20;;;10.70;99.90;;;;;;6246648;22;20171;-40
2022/10/03 07:59:34;;;;;;;27.60;12.03;;;10.80;99.90;;;;;;6246930;22;20168;-38
2022/10/03 08:02:25;;;;;;;29.77;11.37;;;10.80;99.90;;;;;;6247181;22;20184;-39
2022/10/03 08:05:04;;;;;;;29.90;11.03;;;10.90;99.90;;;;;;6247146;22;20544;-40
2022/10/03 08:08:03;;;;;;;25.00;10.40;;;10.90;99.90;;;;;;6245133;23;20302;-42
2022/10/03 08:11:01;;;;;;;27.93;11.33;;;11.00;99.90;;;;;;6214259;23;20167;-41
2022/10/03 08:13:59;;;;;;;29.73;10.77;;;11.10;99.90;;;;;;6247180;22;20195;-39
2022/10/03 08:16:49;;;;;;;64.57;31.93;;;11.30;99.90;;;;;;6246894;22;20221;-38
2022/10/03 08:19:26;;;;;;;29.83;18.83;;;11.40;99.90;;;;;;6245070;23;20165;-38
2022/10/03 08:22:14;;;;;;;32.17;13.40;;;11.60;99.90;;;;;;6247365;22;20172;-42
2022/10/03 08:25:09;;;;;;;25.03;11.70;;;11.80;99.90;;;;;;6247168;22;20185;-41
2022/10/03 08:27:46;;;;;;;26.77;10.67;;;11.90;99.90;;;;;;6244941;23;20212;-40
2022/10/03 08:30:51;;;;;;;25.17;11.67;;;11.80;99.90;;;;;;6247137;22;20145;-38
2022/10/03 08:33:38;;;;;;;26.63;11.67;;;11.70;99.90;;;;;;6246157;22;20180;-38
2022/10/03 08:36:15;;;;;;;33.87;11.33;;;11.70;99.90;;;;;;6244251;23;20220;-41
2022/10/03 08:38:47;;;;;;;27.00;10.87;;;11.80;99.90;;;;;;6246418;22;20231;-40
2022/10/03 08:41:34;;;;;;;32.83;13.77;;;11.90;99.90;;;;;;6246354;22;20651;-41
2022/10/03 08:44:19;;;;;;;33.77;11.20;;;12.10;99.90;;;;;;6244542;23;20183;-40
2022/10/03 08:47:26;;;;;;;27.67;11.53;;;12.30;99.90;;;;;;6246187;22;20516;-38
2022/10/03 08:50:22;;;;;;;30.70;11.77;;;12.40;99.90;;;;;;6245076;23;20149;-39
2022/10/03 08:53:33;;;;;;;26.40;11.17;;;12.50;99.90;;;;;;6244622;23;20190;-40
2022/10/03 08:56:21;;;;;;;27.40;12.30;;;12.60;99.90;;;;;;6246598;22;20171;-40
2022/10/03 08:59:29;;;;;;;22.30;9.73;;;12.80;99.90;;;;;;6245436;23;20204;-41
2022/10/03 09:02:13;;;;;;;35.27;11.77;;;12.90;99.90;;;;;;6247163;22;20154;-39
2022/10/03 09:05:06;;;;;;;33.27;11.90;;;13.00;99.90;;;;;;6219509;23;20152;-39
2022/10/03 09:07:58;;;;;;;28.47;11.60;;;13.10;99.90;;;;;;6246324;22;20175;-41
2022/10/03 09:11:07;;;;;;;34.13;11.80;;;13.30;99.90;;;;;;6246153;22;20480;-40
2022/10/03 09:14:10;;;;;;;30.23;10.97;;;13.50;99.90;;;;;;6246133;22;20186;-41
2022/10/03 09:17:13;;;;;;;23.37;9.90;;;13.70;99.90;;;;;;6246038;22;20509;-37
2022/10/03 09:20:01;;;;;;;24.17;9.07;;;13.90;99.90;;;;;;6246532;22;20493;-39
2022/10/03 09:22:49;;;;;;;17.60;8.63;;;13.90;99.90;;;;;;6244628;23;20243;-40
2022/10/03 09:25:39;;;;;;;19.67;7.93;;;13.90;99.90;;;;;;6246192;23;20143;-41
2022/10/03 09:28:29;;;;;;;18.40;8.20;;;13.80;99.90;;;;;;6246340;23;20172;-40
2022/10/03 09:31:09;;;;;;;18.70;7.53;;;13.90;99.90;;;;;;6246377;23;20174;-40
2022/10/03 09:33:52;;;;;;;16.57;7.50;;;13.90;99.90;;;;;;6246299;22;20691;-44
2022/10/03 09:36:43;;;;;;;13.47;6.07;;;14.10;99.90;;;;;;6246289;22;20171;-40
2022/10/03 09:39:27;;;;;;;12.67;5.10;;;14.20;99.90;;;;;;6246075;23;20139;-39
2022/10/03 09:42:24;;;;;;;14.53;4.67;;;14.30;99.90;;;;;;6244578;23;20151;-39
2022/10/03 09:45:51;;;;;;;10.77;4.93;;;14.40;99.90;;;;;;6246083;22;20239;-42
2022/10/03 09:48:23;;;;;;;17.27;5.77;;;14.50;99.90;;;;;;6113920;23;20192;-41
2022/10/03 09:51:21;;;;;;;9.73;5.07;;;14.60;99.90;;;;;;6131186;23;20164;-40
2022/10/03 09:54:21;;;;;;;14.57;5.07;;;14.80;99.90;;;;;;6174752;22;20195;-42
2022/10/03 09:57:07;;;;;;;11.37;4.03;;;14.90;99.90;;;;;;6246560;23;20183;-37
2022/10/03 09:59:59;;;;;;;7.67;4.10;;;15.00;99.90;;;;;;6246602;23;20178;-39
2022/10/03 10:03:14;;;;;;;8.77;3.57;;;15.20;99.90;;;;;;6247484;23;20171;-39
2022/10/03 10:06:01;;;;;;;13.30;3.63;;;15.30;99.90;;;;;;6245641;23;20655;-40
2022/10/03 10:08:58;;;;;;;13.70;3.70;;;15.50;99.90;;;;;;6248490;22;20285;-38
2022/10/03 10:11:29;;;;;;;9.37;3.30;;;15.60;99.90;;;;;;6246403;23;20167;-40
2022/10/03 10:14:07;;;;;;;10.30;3.00;;;15.70;99.90;;;;;;6246523;23;20163;-43
2022/10/03 10:16:48;;;;;;;10.50;3.20;;;15.70;99.90;;;;;;6246582;23;20186;-44
2022/10/03 10:19:32;;;;;;;7.67;2.40;;;15.70;99.90;;;;;;6246367;23;20628;-39
2022/10/03 10:22:42;;;;;;;9.77;2.67;;;15.80;99.90;;;;;;6248265;23;20143;-41
2022/10/03 10:25:37;;;;;;;9.73;3.47;;;16.00;99.90;;;;;;6156055;23;20162;-42
2022/10/03 10:28:31;;;;;;;13.67;3.70;;;16.30;99.90;;;;;;6248091;22;20190;-42
2022/10/03 10:31:18;;;;;;;10.40;3.10;;;16.40;99.90;;;;;;6248437;22;20641;-42
2022/10/03 10:34:35;;;;;;;9.40;2.73;;;16.60;99.90;;;;;;6247838;22;20221;-43
2022/10/03 10:37:10;;;;;;;13.60;3.07;;;16.70;99.90;;;;;;6248243;22;20346;-43
2022/10/03 10:39:35;;;;;;;10.47;2.73;;;16.80;99.90;;;;;;6248497;22;20528;-43
2022/10/03 10:42:37;;;;;;;9.33;3.37;;;16.80;99.90;;;;;;6247749;22;20156;-40
2022/10/03 10:45:21;;;;;;;8.50;2.23;;;16.90;99.90;;;;;;6247358;23;20183;-39
2022/10/03 10:48:20;;;;;;;7.07;1.50;;;16.80;99.90;;;;;;6247744;23;20178;-37
2022/10/03 10:51:32;;;;;;;7.50;2.27;;;16.70;99.90;;;;;;6247443;22;20209;-39
2022/10/03 10:54:37;;;;;;;6.47;2.10;;;16.60;99.90;;;;;;6247916;22;20151;-38
2022/10/03 10:57:21;;;;;;;8.73;2.60;;;16.70;99.90;;;;;;6246275;23;20171;-38
2022/10/03 11:00:02;;;;;;;11.43;2.10;;;16.70;99.90;;;;;;6247501;23;20135;-38
2022/10/03 11:03:06;;;;;;;11.13;2.23;;;16.80;99.90;;;;;;6246503;23;20156;-38
2022/10/03 11:05:50;;;;;;;9.70;2.57;;;17.00;99.90;;;;;;6227011;23;20242;-41
2022/10/03 11:08:38;;;;;;;5.37;2.07;;;17.10;99.90;;;;;;6247213;22;20179;-39
2022/10/03 11:11:42;;;;;;;7.47;2.10;;;17.30;99.90;;;;;;6247395;22;20140;-41
2022/10/03 11:14:13;;;;;;;10.47;2.57;;;17.50;99.90;;;;;;6247204;23;20163;-41
2022/10/03 11:17:03;;;;;;;5.23;1.83;;;17.60;99.90;;;;;;6247411;22;20179;-40
2022/10/03 11:19:47;;;;;;;5.37;2.10;;;17.80;99.90;;;;;;6247581;22;20278;-42
2022/10/03 11:22:32;;;;;;;8.10;2.10;;;18.00;99.90;;;;;;6247454;23;20151;-40
2022/10/03 11:25:13;;;;;;;9.33;2.67;;;18.10;99.90;;;;;;6247632;23;20266;-39
2022/10/03 11:27:45;;;;;;;9.60;2.67;;;18.20;99.90;;;;;;6247387;22;20182;-43
2022/10/03 11:30:41;;;;;;;5.23;2.03;;;18.40;99.90;;;;;;6245436;23;20163;-41
2022/10/03 11:33:40;;;;;;;5.53;1.87;;;18.40;99.90;;;;;;6245358;23;20188;-39
2022/10/03 11:36:47;;;;;;;7.57;2.10;;;18.40;99.90;;;;;;6247346;22;20147;-40
2022/10/03 11:39:50;;;;;;;4.17;1.97;;;18.60;99.90;;;;;;6211833;23;20233;-40
2022/10/03 11:42:21;;;;;;;4.20;1.70;;;18.70;99.90;;;;;;6247157;23;20162;-41
2022/10/03 11:45:19;;;;;;;9.07;1.90;;;18.90;99.90;;;;;;6246963;22;20285;-41
2022/10/03 11:48:08;;;;;;;8.40;1.77;;;19.00;99.90;;;;;;6245325;23;20187;-44
2022/10/03 11:50:53;;;;;;;4.03;1.57;;;19.10;99.90;;;;;;6202631;22;20159;-40
2022/10/03 11:53:54;;;;;;;6.27;2.00;;;19.30;99.90;;;;;;6247217;22;20186;-42
2022/10/03 11:56:40;;;;;;;6.00;2.00;;;19.30;99.90;;;;;;6229670;23;20253;-40
2022/10/03 11:59:24;;;;;;;4.07;1.80;;;19.20;99.90;;;;;;6247686;22;20443;-40
2022/10/03 12:01:57;;;;;;;5.67;1.50;;;19.10;99.90;;;;;;6247376;22;20223;-41
2022/10/03 12:04:33;;;;;;;4.53;1.47;;;19.10;99.90;;;;;;6247037;22;20136;-43
2022/10/03 12:10:26;;;;;;;5.73;1.57;;;19.20;99.90;;;;;;6184490;23;20208;-41
2022/10/03 12:12:54;;;;;;;4.43;1.60;;;19.30;99.90;;;;;;6183777;23;20271;-41
2022/10/03 12:15:28;;;;;;;7.47;1.97;;;19.30;99.90;;;;;;6217137;22;20183;-38
2022/10/03 12:18:19;;;;;;;6.43;2.00;;;19.20;99.90;;;;;;6244874;23;20175;-42
2022/10/03 12:21:15;;;;;;;5.47;1.90;;;19.20;99.90;;;;;;6246910;22;20136;-40
2022/10/03 12:24:22;;;;;;;7.37;2.00;;;19.00;99.90;;;;;;6246971;22;20162;-42
2022/10/03 12:26:58;;;;;;;8.47;1.57;;;19.10;99.90;;;;;;6172471;22;20183;-39
2022/10/03 12:29:26;;;;;;;3.03;1.33;;;19.20;99.90;;;;;;6245001;23;20152;-39
2022/10/03 12:32:11;;;;;;;7.43;1.40;;;19.30;99.90;;;;;;6247080;23;20234;-42
2022/10/03 12:35:00;;;;;;;6.77;1.93;;;19.30;99.90;;;;;;6246796;22;20147;-42
2022/10/03 12:37:40;;;;;;;6.13;1.63;;;19.20;99.90;;;;;;6246744;22;20167;-38
2022/10/03 12:40:36;;;;;;;5.13;1.40;;;19.20;99.90;;;;;;6246751;22;20132;-40
2022/10/03 12:43:27;;;;;;;4.10;1.20;;;19.30;99.90;;;;;;6246452;22;20217;-39
2022/10/03 12:46:12;;;;;;;6.33;1.27;;;19.20;99.90;;;;;;6246795;22;20185;-39
2022/10/03 12:48:54;;;;;;;4.87;1.60;;;19.30;99.90;;;;;;6246453;22;20148;-40
2022/10/03 12:51:46;;;;;;;3.33;1.20;;;19.40;99.90;;;;;;6246799;22;20147;-42
2022/10/03 12:54:36;;;;;;;3.83;1.50;;;19.40;99.90;;;;;;6246326;22;20230;-42
2022/10/03 12:57:48;;;;;;;7.23;1.43;;;19.30;99.90;;;;;;6246568;22;20179;-40
2022/10/03 13:00:26;;;;;;;2.10;0.93;;;19.40;99.90;;;;;;6246744;22;20147;-40
2022/10/03 13:03:13;;;;;;;3.87;1.40;;;19.50;99.90;;;;;;6246659;22;20147;-41
2022/10/03 13:05:59;;;;;;;6.53;1.50;;;19.70;99.90;;;;;;6246596;22;20197;-39
2022/10/03 13:08:57;;;;;;;4.70;1.30;;;19.80;99.90;;;;;;6230025;23;20160;-41
2022/10/03 13:11:35;;;;;;;4.57;1.23;;;19.90;99.90;;;;;;6246612;22;20175;-39
2022/10/03 13:14:15;;;;;;;5.17;1.50;;;19.90;99.90;;;;;;6246558;22;20147;-39
2022/10/03 13:17:08;;;;;;;5.00;1.23;;;19.90;99.90;;;;;;6246323;22;20168;-42
2022/10/03 13:19:42;;;;;;;3.13;1.30;;;20.00;99.90;;;;;;6246094;23;20159;-43
2022/10/03 13:22:27;;;;;;;3.83;1.80;;;20.00;99.90;;;;;;6245909;22;20167;-39
2022/10/03 13:25:13;;;;;;;5.33;1.60;;;20.00;99.90;;;;;;6244612;23;20151;-42
2022/10/03 13:27:58;;;;;;;3.40;1.37;;;19.90;99.90;;;;;;6246004;22;20171;-41
2022/10/03 13:30:40;;;;;;;5.13;1.10;;;19.80;99.90;;;;;;6246239;22;20140;-41
2022/10/03 13:33:41;;;;;;;2.67;1.30;;;19.50;99.90;;;;;;6245955;22;20207;-43
2022/10/03 13:36:29;;;;;;;5.13;2.47;;;19.30;99.90;;;;;;6245538;23;20205;-42
2022/10/03 13:39:13;;;;;;;2.97;1.50;;;19.10;99.90;;;;;;6246105;22;20217;-38
2022/10/03 13:41:50;;;;;;;6.07;3.20;;;19.20;99.90;;;;;;6246501;22;20143;-44
2022/10/03 13:44:16;;;;;;;3.87;1.60;;;19.20;99.90;;;;;;6245902;22;20167;-42
2022/10/03 13:47:10;;;;;;;4.50;1.60;;;19.20;99.90;;;;;;6246298;22;20239;-42
2022/10/03 13:49:47;;;;;;;4.90;1.27;;;19.00;99.90;;;;;;6246483;22;20219;-40
2022/10/03 13:52:27;;;;;;;3.83;1.40;;;18.80;99.90;;;;;;6246267;22;20168;-42
2022/10/03 13:55:50;;;;;;;5.20;1.40;;;18.70;99.90;;;;;;6246355;22;20139;-43
2022/10/03 13:58:22;;;;;;;6.23;1.40;;;18.60;99.90;;;;;;6227595;23;20175;-42
2022/10/03 14:01:12;;;;;;;3.00;1.33;;;18.50;99.90;;;;;;6246357;22;20155;-42
2022/10/03 14:04:00;;;;;;;2.80;1.40;;;18.30;99.90;;;;;;6246274;22;20166;-41
2022/10/03 14:06:52;;;;;;;6.33;1.40;;;18.30;99.90;;;;;;6246155;22;20254;-41
2022/10/03 14:09:40;;;;;;;7.67;1.60;;;18.40;99.90;;;;;;6245559;23;20160;-43
2022/10/03 14:12:23;;;;;;;6.83;1.40;;;18.50;99.90;;;;;;6246230;22;20206;-44
2022/10/03 14:15:25;;;;;;;4.80;1.47;;;18.60;99.90;;;;;;6244272;23;20148;-43
2022/10/03 14:18:09;;;;;;;3.37;1.30;;;18.70;99.90;;;;;;6246035;23;20175;-41
2022/10/03 14:21:11;;;;;;;4.50;1.50;;;18.70;99.90;;;;;;6246483;22;20140;-43
2022/10/03 14:23:46;;;;;;;3.97;1.13;;;18.70;99.90;;;;;;6246347;23;20559;-41
2022/10/03 14:26:35;;;;;;;3.67;1.30;;;18.70;99.90;;;;;;6244177;23;20155;-41
2022/10/03 14:29:05;;;;;;;6.10;1.30;;;18.80;99.90;;;;;;6246303;22;20543;-42
2022/10/03 14:31:47;;;;;;;5.63;1.60;;;18.80;99.90;;;;;;6245951;22;20217;-43
2022/10/03 14:34:32;;;;;;;5.40;2.70;;;18.80;99.90;;;;;;6247630;22;20523;-39
2022/10/03 14:37:36;;;;;;;3.57;1.40;;;18.90;99.90;;;;;;6247515;22;20254;-42
2022/10/03 14:40:22;;;;;;;7.33;1.80;;;18.90;99.90;;;;;;6247881;22;20170;-40
2022/10/03 14:43:15;;;;;;;5.63;1.47;;;18.90;99.90;;;;;;6247940;22;20144;-41
2022/10/03 14:45:48;;;;;;;3.00;1.00;;;18.80;99.90;;;;;;6247563;22;20586;-41